sensor_id;sensor_type;location;lat;lon;timestamp;temperature;humidity
44823;DHT22;51097;51.984;5.650;2023-01-26T00:01:44;3.40;99.90
44823;DHT22;51097;51.984;5.650;2023-01-26T00:04:10;3.40;99.90
44823;DHT22;51097;51.984;5.650;2023-01-26T00:06:36;3.50;99.90
44823;DHT22;51097;51.984;5.650;2023-01-26T00:09:02;3.40;99.90
44823;DHT22;51097;51.984;5.650;2023-01-26T00:11:28;3.40;99.90
44823;DHT22;51097;51.984;5.650;2023-01-26T00:13:59;3.30;99.90
44823;DHT22;51097;51.984;5.650;2023-01-26T00:16:26;3.30;99.90
44823;DHT22;51097;51.984;5.650;2023-01-26T00:18:51;3.20;99.90
44823;DHT22;51097;51.984;5.650;2023-01-26T00:21:20;3.30;99.90
44823;DHT22;51097;51.984;5.650;2023-01-26T00:23:47;3.20;99.90
44823;DHT22;51097;51.984;5.650;2023-01-26T00:26:18;3.20;99.90
44823;DHT22;51097;51.984;5.650;2023-01-26T00:28:44;3.40;99.90
44823;DHT22;51097;51.984;5.650;2023-01-26T00:31:12;3.50;99.90
44823;DHT22;51097;51.984;5.650;2023-01-26T00:33:38;3.40;99.90
44823;DHT22;51097;51.984;5.650;2023-01-26T00:36:04;3.40;99.90
44823;DHT22;51097;51.984;5.650;2023-01-26T00:38:30;3.50;99.90
44823;DHT22;51097;51.984;5.650;2023-01-26T00:40:56;3.50;99.90
44823;DHT22;51097;51.984;5.650;2023-01-26T00:43:21;3.50;99.90
44823;DHT22;51097;51.984;5.650;2023-01-26T00:45:47;3.40;99.90
44823;DHT22;51097;51.984;5.650;2023-01-26T00:48:13;3.50;99.90
44823;DHT22;51097;51.984;5.650;2023-01-26T00:50:38;3.60;99.90
44823;DHT22;51097;51.984;5.650;2023-01-26T00:53:04;3.60;99.90
44823;DHT22;51097;51.984;5.650;2023-01-26T00:55:30;3.60;99.90
44823;DHT22;51097;51.984;5.650;2023-01-26T00:58:02;3.60;99.90
44823;DHT22;51097;51.984;5.650;2023-01-26T01:00:28;3.60;99.90
44823;DHT22;51097;51.984;5.650;2023-01-26T01:02:54;3.70;99.90
44823;DHT22;51097;51.984;5.650;2023-01-26T01:05:25;3.70;99.90
44823;DHT22;51097;51.984;5.650;2023-01-26T01:07:51;3.60;99.90
44823;DHT22;51097;51.984;5.650;2023-01-26T01:10:16;3.60;99.90
44823;DHT22;51097;51.984;5.650;2023-01-26T01:12:42;3.50;99.90
44823;DHT22;51097;51.984;5.650;2023-01-26T01:15:09;3.60;99.90
44823;DHT22;51097;51.984;5.650;2023-01-26T01:17:35;3.60;99.90
44823;DHT22;51097;51.984;5.650;2023-01-26T01:20:03;3.60;99.90
44823;DHT22;51097;51.984;5.650;2023-01-26T01:22:30;3.70;99.90
44823;DHT22;51097;51.984;5.650;2023-01-26T01:24:56;3.70;99.90
44823;DHT22;51097;51.984;5.650;2023-01-26T01:27:21;3.60;99.90
44823;DHT22;51097;51.984;5.650;2023-01-26T01:29:49;3.70;99.90
44823;DHT22;51097;51.984;5.650;2023-01-26T01:32:14;3.60;99.90
44823;DHT22;51097;51.984;5.650;2023-01-26T01:34:40;3.60;99.90
44823;DHT22;51097;51.984;5.650;2023-01-26T01:37:05;3.60;99.90
44823;DHT22;51097;51.984;5.650;2023-01-26T01:39:31;3.60;99.90
44823;DHT22;51097;51.984;5.650;2023-01-26T01:41:56;3.60;99.90
44823;DHT22;51097;51.984;5.650;2023-01-26T01:44:24;3.60;99.90
44823;DHT22;51097;51.984;5.650;2023-01-26T01:47:16;3.70;99.90
44823;DHT22;51097;51.984;5.650;2023-01-26T01:49:47;3.60;99.90
44823;DHT22;51097;51.984;5.650;2023-01-26T01:52:23;3.60;99.90
44823;DHT22;51097;51.984;5.650;2023-01-26T01:55:04;3.60;99.90
44823;DHT22;51097;51.984;5.650;2023-01-26T01:57:38;3.60;99.90
44823;DHT22;51097;51.984;5.650;2023-01-26T02:00:18;3.70;99.90
44823;DHT22;51097;51.984;5.650;2023-01-26T02:02:45;3.60;99.90
44823;DHT22;51097;51.984;5.650;2023-01-26T02:05:40;3.70;99.90
44823;DHT22;51097;51.984;5.650;2023-01-26T02:08:07;3.60;99.90
44823;DHT22;51097;51.984;5.650;2023-01-26T02:10:35;3.70;99.90
44823;DHT22;51097;51.984;5.650;2023-01-26T02:13:01;3.80;99.90
44823;DHT22;51097;51.984;5.650;2023-01-26T02:15:28;3.70;99.90
44823;DHT22;51097;51.984;5.650;2023-01-26T02:18:02;3.90;99.90
44823;DHT22;51097;51.984;5.650;2023-01-26T02:20:48;3.80;99.90
44823;DHT22;51097;51.984;5.650;2023-01-26T02:23:59;3.80;99.90
44823;DHT22;51097;51.984;5.650;2023-01-26T02:26:33;3.80;99.90
44823;DHT22;51097;51.984;5.650;2023-01-26T02:29:00;3.80;99.90
44823;DHT22;51097;51.984;5.650;2023-01-26T02:31:26;3.80;99.90
44823;DHT22;51097;51.984;5.650;2023-01-26T02:33:52;3.80;99.90
44823;DHT22;51097;51.984;5.650;2023-01-26T02:36:22;3.90;99.90
44823;DHT22;51097;51.984;5.650;2023-01-26T02:41:36;4.00;99.90
44823;DHT22;51097;51.984;5.650;2023-01-26T02:44:20;3.90;99.90
44823;DHT22;51097;51.984;5.650;2023-01-26T02:46:46;3.90;99.90
44823;DHT22;51097;51.984;5.650;2023-01-26T02:49:11;4.00;99.90
44823;DHT22;51097;51.984;5.650;2023-01-26T02:51:55;4.00;99.90
44823;DHT22;51097;51.984;5.650;2023-01-26T02:54:21;4.00;99.90
44823;DHT22;51097;51.984;5.650;2023-01-26T02:57:05;4.10;99.90
44823;DHT22;51097;51.984;5.650;2023-01-26T02:59:30;4.10;99.90
44823;DHT22;51097;51.984;5.650;2023-01-26T03:01:56;4.10;99.90
44823;DHT22;51097;51.984;5.650;2023-01-26T03:04:22;4.00;99.90
44823;DHT22;51097;51.984;5.650;2023-01-26T03:06:48;4.00;99.90
44823;DHT22;51097;51.984;5.650;2023-01-26T03:09:13;4.10;99.90
44823;DHT22;51097;51.984;5.650;2023-01-26T03:11:39;4.10;99.90
44823;DHT22;51097;51.984;5.650;2023-01-26T03:14:12;4.10;99.90
44823;DHT22;51097;51.984;5.650;2023-01-26T03:16:38;4.10;99.90
44823;DHT22;51097;51.984;5.650;2023-01-26T03:19:05;4.10;99.90
44823;DHT22;51097;51.984;5.650;2023-01-26T03:21:49;4.20;99.90
44823;DHT22;51097;51.984;5.650;2023-01-26T03:24:33;4.10;99.90
44823;DHT22;51097;51.984;5.650;2023-01-26T03:27:17;4.20;99.90
44823;DHT22;51097;51.984;5.650;2023-01-26T03:29:55;4.20;99.90
44823;DHT22;51097;51.984;5.650;2023-01-26T03:32:22;4.20;99.90
44823;DHT22;51097;51.984;5.650;2023-01-26T03:34:48;4.10;99.90
44823;DHT22;51097;51.984;5.650;2023-01-26T03:37:14;4.10;99.90
44823;DHT22;51097;51.984;5.650;2023-01-26T03:39:39;4.10;99.90
44823;DHT22;51097;51.984;5.650;2023-01-26T03:42:23;4.10;99.90
44823;DHT22;51097;51.984;5.650;2023-01-26T03:45:08;4.10;99.90
44823;DHT22;51097;51.984;5.650;2023-01-26T03:47:53;4.10;99.90
44823;DHT22;51097;51.984;5.650;2023-01-26T03:50:45;4.30;99.90
44823;DHT22;51097;51.984;5.650;2023-01-26T03:53:29;4.20;99.90
44823;DHT22;51097;51.984;5.650;2023-01-26T03:56:13;4.30;99.90
44823;DHT22;51097;51.984;5.650;2023-01-26T03:58:59;4.30;99.90
44823;DHT22;51097;51.984;5.650;2023-01-26T04:01:38;4.30;99.90
44823;DHT22;51097;51.984;5.650;2023-01-26T04:04:05;4.20;99.90
44823;DHT22;51097;51.984;5.650;2023-01-26T04:06:50;4.40;99.90
44823;DHT22;51097;51.984;5.650;2023-01-26T04:09:35;4.30;99.90
44823;DHT22;51097;51.984;5.650;2023-01-26T04:12:02;4.30;99.90
44823;DHT22;51097;51.984;5.650;2023-01-26T04:14:28;4.30;99.90
44823;DHT22;51097;51.984;5.650;2023-01-26T04:17:12;4.30;99.90
44823;DHT22;51097;51.984;5.650;2023-01-26T04:19:56;4.40;99.90
44823;DHT22;51097;51.984;5.650;2023-01-26T04:22:40;4.40;99.90
44823;DHT22;51097;51.984;5.650;2023-01-26T04:25:17;4.40;99.90
44823;DHT22;51097;51.984;5.650;2023-01-26T04:27:43;4.30;99.90
44823;DHT22;51097;51.984;5.650;2023-01-26T04:30:11;4.30;99.90
44823;DHT22;51097;51.984;5.650;2023-01-26T04:32:38;4.30;99.90
44823;DHT22;51097;51.984;5.650;2023-01-26T04:35:04;4.30;99.90
44823;DHT22;51097;51.984;5.650;2023-01-26T04:37:30;4.30;99.90
44823;DHT22;51097;51.984;5.650;2023-01-26T04:39:56;4.30;99.90
44823;DHT22;51097;51.984;5.650;2023-01-26T04:42:22;4.50;99.90
44823;DHT22;51097;51.984;5.650;2023-01-26T04:44:51;4.50;99.90
44823;DHT22;51097;51.984;5.650;2023-01-26T04:47:18;4.40;99.90
44823;DHT22;51097;51.984;5.650;2023-01-26T04:49:44;4.40;99.90
44823;DHT22;51097;51.984;5.650;2023-01-26T04:52:10;4.40;99.90
44823;DHT22;51097;51.984;5.650;2023-01-26T04:54:35;4.50;99.90
44823;DHT22;51097;51.984;5.650;2023-01-26T04:57:01;4.40;99.90
44823;DHT22;51097;51.984;5.650;2023-01-26T04:59:26;4.40;99.90
44823;DHT22;51097;51.984;5.650;2023-01-26T05:01:52;4.40;99.90
44823;DHT22;51097;51.984;5.650;2023-01-26T05:04:18;4.40;99.90
44823;DHT22;51097;51.984;5.650;2023-01-26T05:06:43;4.40;99.90
44823;DHT22;51097;51.984;5.650;2023-01-26T05:09:09;4.50;99.90
44823;DHT22;51097;51.984;5.650;2023-01-26T05:11:35;4.50;99.90
44823;DHT22;51097;51.984;5.650;2023-01-26T05:14:01;4.50;99.90
44823;DHT22;51097;51.984;5.650;2023-01-26T05:16:26;4.50;99.90
44823;DHT22;51097;51.984;5.650;2023-01-26T05:18:53;4.50;99.90
44823;DHT22;51097;51.984;5.650;2023-01-26T05:21:18;4.50;99.90
44823;DHT22;51097;51.984;5.650;2023-01-26T05:23:44;4.60;99.90
44823;DHT22;51097;51.984;5.650;2023-01-26T05:26:09;4.50;99.90
44823;DHT22;51097;51.984;5.650;2023-01-26T05:28:35;4.50;99.90
44823;DHT22;51097;51.984;5.650;2023-01-26T05:31:01;4.50;99.90
44823;DHT22;51097;51.984;5.650;2023-01-26T05:33:27;4.60;99.90
44823;DHT22;51097;51.984;5.650;2023-01-26T05:35:52;4.60;99.90
44823;DHT22;51097;51.984;5.650;2023-01-26T05:38:19;4.60;99.90
44823;DHT22;51097;51.984;5.650;2023-01-26T05:40:45;4.60;99.90
44823;DHT22;51097;51.984;5.650;2023-01-26T05:43:11;4.70;99.90
44823;DHT22;51097;51.984;5.650;2023-01-26T05:45:38;4.60;99.90
44823;DHT22;51097;51.984;5.650;2023-01-26T05:48:03;4.60;99.90
44823;DHT22;51097;51.984;5.650;2023-01-26T05:50:29;4.60;99.90
44823;DHT22;51097;51.984;5.650;2023-01-26T05:52:55;4.60;99.90
44823;DHT22;51097;51.984;5.650;2023-01-26T05:55:21;4.70;99.90
44823;DHT22;51097;51.984;5.650;2023-01-26T05:57:46;4.70;99.90
44823;DHT22;51097;51.984;5.650;2023-01-26T06:00:13;4.70;99.90
44823;DHT22;51097;51.984;5.650;2023-01-26T06:02:39;4.70;99.90
44823;DHT22;51097;51.984;5.650;2023-01-26T06:05:05;4.70;99.90
44823;DHT22;51097;51.984;5.650;2023-01-26T06:07:31;4.80;99.90
44823;DHT22;51097;51.984;5.650;2023-01-26T06:09:56;4.70;99.90
44823;DHT22;51097;51.984;5.650;2023-01-26T06:12:22;4.70;99.90
44823;DHT22;51097;51.984;5.650;2023-01-26T06:14:48;4.70;99.90
44823;DHT22;51097;51.984;5.650;2023-01-26T06:17:15;4.80;99.90
44823;DHT22;51097;51.984;5.650;2023-01-26T06:19:41;4.80;99.90
44823;DHT22;51097;51.984;5.650;2023-01-26T06:22:07;4.80;99.90
44823;DHT22;51097;51.984;5.650;2023-01-26T06:24:33;4.70;99.90
44823;DHT22;51097;51.984;5.650;2023-01-26T06:26:59;4.80;99.90
44823;DHT22;51097;51.984;5.650;2023-01-26T06:29:25;4.80;99.90
44823;DHT22;51097;51.984;5.650;2023-01-26T06:31:50;4.80;99.90
44823;DHT22;51097;51.984;5.650;2023-01-26T06:34:17;4.80;99.90
44823;DHT22;51097;51.984;5.650;2023-01-26T06:36:44;4.70;99.90
44823;DHT22;51097;51.984;5.650;2023-01-26T06:39:11;4.80;99.90
44823;DHT22;51097;51.984;5.650;2023-01-26T06:41:36;4.80;99.90
44823;DHT22;51097;51.984;5.650;2023-01-26T06:44:02;4.80;99.90
44823;DHT22;51097;51.984;5.650;2023-01-26T06:46:27;4.80;99.90
44823;DHT22;51097;51.984;5.650;2023-01-26T06:48:53;4.80;99.90
44823;DHT22;51097;51.984;5.650;2023-01-26T06:51:39;4.80;99.90
44823;DHT22;51097;51.984;5.650;2023-01-26T06:54:11;4.90;99.90
44823;DHT22;51097;51.984;5.650;2023-01-26T06:56:37;4.80;99.90
44823;DHT22;51097;51.984;5.650;2023-01-26T06:59:03;4.80;99.90
44823;DHT22;51097;51.984;5.650;2023-01-26T07:01:34;4.90;99.90
44823;DHT22;51097;51.984;5.650;2023-01-26T07:04:00;4.90;99.90
44823;DHT22;51097;51.984;5.650;2023-01-26T07:06:26;4.70;99.90
44823;DHT22;51097;51.984;5.650;2023-01-26T07:08:52;4.90;99.90
44823;DHT22;51097;51.984;5.650;2023-01-26T07:11:17;4.90;99.90
44823;DHT22;51097;51.984;5.650;2023-01-26T07:13:44;4.90;99.90
44823;DHT22;51097;51.984;5.650;2023-01-26T07:16:12;4.80;99.90
44823;DHT22;51097;51.984;5.650;2023-01-26T07:18:38;4.80;99.90
44823;DHT22;51097;51.984;5.650;2023-01-26T07:21:15;4.90;99.90
44823;DHT22;51097;51.984;5.650;2023-01-26T07:23:42;5.00;99.90
44823;DHT22;51097;51.984;5.650;2023-01-26T07:26:08;5.00;99.90
44823;DHT22;51097;51.984;5.650;2023-01-26T07:28:33;5.00;99.90
44823;DHT22;51097;51.984;5.650;2023-01-26T07:31:01;4.90;99.90
44823;DHT22;51097;51.984;5.650;2023-01-26T07:33:31;4.90;99.90
44823;DHT22;51097;51.984;5.650;2023-01-26T07:35:58;4.90;99.90
44823;DHT22;51097;51.984;5.650;2023-01-26T07:38:25;4.90;99.90
44823;DHT22;51097;51.984;5.650;2023-01-26T07:40:51;4.90;99.90
44823;DHT22;51097;51.984;5.650;2023-01-26T07:43:17;5.00;99.90
44823;DHT22;51097;51.984;5.650;2023-01-26T07:45:50;5.00;99.90
44823;DHT22;51097;51.984;5.650;2023-01-26T07:48:17;5.10;99.90
44823;DHT22;51097;51.984;5.650;2023-01-26T07:50:44;5.00;99.90
44823;DHT22;51097;51.984;5.650;2023-01-26T07:53:10;4.90;99.90
44823;DHT22;51097;51.984;5.650;2023-01-26T07:55:37;5.00;99.90
44823;DHT22;51097;51.984;5.650;2023-01-26T07:58:03;5.00;99.90
44823;DHT22;51097;51.984;5.650;2023-01-26T08:00:28;5.00;99.90
44823;DHT22;51097;51.984;5.650;2023-01-26T08:02:54;5.00;99.90
44823;DHT22;51097;51.984;5.650;2023-01-26T08:05:20;5.00;99.90
44823;DHT22;51097;51.984;5.650;2023-01-26T08:07:45;5.00;99.90
44823;DHT22;51097;51.984;5.650;2023-01-26T08:10:11;5.00;99.90
44823;DHT22;51097;51.984;5.650;2023-01-26T08:12:38;5.10;99.90
44823;DHT22;51097;51.984;5.650;2023-01-26T08:15:04;5.10;99.90
44823;DHT22;51097;51.984;5.650;2023-01-26T08:17:30;5.20;99.90
44823;DHT22;51097;51.984;5.650;2023-01-26T08:19:58;5.10;99.90
44823;DHT22;51097;51.984;5.650;2023-01-26T08:22:24;5.10;99.90
44823;DHT22;51097;51.984;5.650;2023-01-26T08:24:50;5.10;99.90
44823;DHT22;51097;51.984;5.650;2023-01-26T08:27:15;5.10;99.90
44823;DHT22;51097;51.984;5.650;2023-01-26T08:29:41;5.10;99.90
44823;DHT22;51097;51.984;5.650;2023-01-26T08:32:07;5.10;99.90
44823;DHT22;51097;51.984;5.650;2023-01-26T08:34:33;5.10;99.90
44823;DHT22;51097;51.984;5.650;2023-01-26T08:36:59;5.10;99.90
44823;DHT22;51097;51.984;5.650;2023-01-26T08:39:24;5.10;99.90
44823;DHT22;51097;51.984;5.650;2023-01-26T08:41:50;5.20;99.90
44823;DHT22;51097;51.984;5.650;2023-01-26T08:44:15;5.10;99.90
44823;DHT22;51097;51.984;5.650;2023-01-26T08:46:42;5.10;99.90
44823;DHT22;51097;51.984;5.650;2023-01-26T08:49:08;5.10;99.90
44823;DHT22;51097;51.984;5.650;2023-01-26T08:51:34;5.10;99.90
44823;DHT22;51097;51.984;5.650;2023-01-26T08:53:59;5.10;99.90
44823;DHT22;51097;51.984;5.650;2023-01-26T08:56:25;5.10;99.90
44823;DHT22;51097;51.984;5.650;2023-01-26T08:58:50;5.20;99.90
44823;DHT22;51097;51.984;5.650;2023-01-26T09:01:16;5.20;99.90
44823;DHT22;51097;51.984;5.650;2023-01-26T09:03:42;5.20;99.90
44823;DHT22;51097;51.984;5.650;2023-01-26T09:06:09;5.20;99.90
44823;DHT22;51097;51.984;5.650;2023-01-26T09:08:35;5.30;99.90
44823;DHT22;51097;51.984;5.650;2023-01-26T09:11:01;5.20;99.90
44823;DHT22;51097;51.984;5.650;2023-01-26T09:13:27;5.30;99.90
44823;DHT22;51097;51.984;5.650;2023-01-26T09:15:52;5.40;99.90
44823;DHT22;51097;51.984;5.650;2023-01-26T09:18:18;5.30;99.90
44823;DHT22;51097;51.984;5.650;2023-01-26T09:20:44;5.30;99.90
44823;DHT22;51097;51.984;5.650;2023-01-26T09:23:10;5.40;99.90
44823;DHT22;51097;51.984;5.650;2023-01-26T09:25:37;5.40;99.90
44823;DHT22;51097;51.984;5.650;2023-01-26T09:28:04;5.50;99.90
44823;DHT22;51097;51.984;5.650;2023-01-26T09:30:30;5.50;99.90
44823;DHT22;51097;51.984;5.650;2023-01-26T09:33:01;5.50;99.90
44823;DHT22;51097;51.984;5.650;2023-01-26T09:35:27;5.60;99.90
44823;DHT22;51097;51.984;5.650;2023-01-26T09:37:53;5.50;99.90
44823;DHT22;51097;51.984;5.650;2023-01-26T09:40:35;5.60;99.90
44823;DHT22;51097;51.984;5.650;2023-01-26T09:46:31;5.60;99.90
44823;DHT22;51097;51.984;5.650;2023-01-26T09:49:16;5.70;99.90
44823;DHT22;51097;51.984;5.650;2023-01-26T09:52:11;5.70;99.90
44823;DHT22;51097;51.984;5.650;2023-01-26T09:54:51;5.80;99.90
44823;DHT22;51097;51.984;5.650;2023-01-26T10:08:20;6.00;99.90
44823;DHT22;51097;51.984;5.650;2023-01-26T10:11:09;6.00;99.90
44823;DHT22;51097;51.984;5.650;2023-01-26T10:13:36;6.10;99.90
44823;DHT22;51097;51.984;5.650;2023-01-26T10:16:05;6.10;99.90
44823;DHT22;51097;51.984;5.650;2023-01-26T10:18:39;6.20;99.90
44823;DHT22;51097;51.984;5.650;2023-01-26T10:21:09;6.20;99.90
44823;DHT22;51097;51.984;5.650;2023-01-26T10:23:35;6.30;99.90
44823;DHT22;51097;51.984;5.650;2023-01-26T10:26:14;6.30;99.90
44823;DHT22;51097;51.984;5.650;2023-01-26T10:28:42;6.30;99.90
44823;DHT22;51097;51.984;5.650;2023-01-26T10:31:20;6.40;99.90
44823;DHT22;51097;51.984;5.650;2023-01-26T10:33:58;6.50;99.90
44823;DHT22;51097;51.984;5.650;2023-01-26T10:36:29;6.60;99.90
44823;DHT22;51097;51.984;5.650;2023-01-26T10:39:03;6.60;99.90
44823;DHT22;51097;51.984;5.650;2023-01-26T10:41:28;6.70;99.90
44823;DHT22;51097;51.984;5.650;2023-01-26T10:44:00;6.80;99.90
44823;DHT22;51097;51.984;5.650;2023-01-26T10:46:30;6.90;99.90
44823;DHT22;51097;51.984;5.650;2023-01-26T10:48:59;7.00;99.90
44823;DHT22;51097;51.984;5.650;2023-01-26T10:51:29;7.10;99.90
44823;DHT22;51097;51.984;5.650;2023-01-26T10:54:17;7.20;99.90
44823;DHT22;51097;51.984;5.650;2023-01-26T10:57:04;7.30;99.90
44823;DHT22;51097;51.984;5.650;2023-01-26T11:00:21;7.40;99.90
44823;DHT22;51097;51.984;5.650;2023-01-26T11:02:33;7.50;99.90
44823;DHT22;51097;51.984;5.650;2023-01-26T11:07:36;7.70;99.90
44823;DHT22;51097;51.984;5.650;2023-01-26T11:12:41;7.80;99.90
44823;DHT22;51097;51.984;5.650;2023-01-26T11:15:23;8.00;99.90
44823;DHT22;51097;51.984;5.650;2023-01-26T11:17:59;8.10;99.90
44823;DHT22;51097;51.984;5.650;2023-01-26T11:20:43;8.20;99.90
44823;DHT22;51097;51.984;5.650;2023-01-26T11:23:41;8.30;99.90
44823;DHT22;51097;51.984;5.650;2023-01-26T11:28:52;8.40;99.90
44823;DHT22;51097;51.984;5.650;2023-01-26T11:36:59;8.80;99.90
44823;DHT22;51097;51.984;5.650;2023-01-26T11:39:41;9.00;99.90
44823;DHT22;51097;51.984;5.650;2023-01-26T11:42:38;9.10;99.90
44823;DHT22;51097;51.984;5.650;2023-01-26T11:50:49;9.40;99.90
44823;DHT22;51097;51.984;5.650;2023-01-26T11:59:08;9.80;99.90
44823;DHT22;51097;51.984;5.650;2023-01-26T12:01:42;9.80;99.90
44823;DHT22;51097;51.984;5.650;2023-01-26T12:04:18;9.90;99.90
44823;DHT22;51097;51.984;5.650;2023-01-26T12:06:46;10.00;99.90
44823;DHT22;51097;51.984;5.650;2023-01-26T12:09:24;10.00;99.90
44823;DHT22;51097;51.984;5.650;2023-01-26T12:11:59;10.10;99.90
44823;DHT22;51097;51.984;5.650;2023-01-26T12:19:56;10.40;99.90
44823;DHT22;51097;51.984;5.650;2023-01-26T12:22:41;10.40;99.90
44823;DHT22;51097;51.984;5.650;2023-01-26T12:27:43;10.50;99.90
44823;DHT22;51097;51.984;5.650;2023-01-26T12:30:25;10.60;99.90
44823;DHT22;51097;51.984;5.650;2023-01-26T12:32:55;10.60;99.90
44823;DHT22;51097;51.984;5.650;2023-01-26T12:35:44;10.70;99.90
44823;DHT22;51097;51.984;5.650;2023-01-26T12:38:22;10.80;99.90
44823;DHT22;51097;51.984;5.650;2023-01-26T12:41:43;10.90;99.90
44823;DHT22;51097;51.984;5.650;2023-01-26T12:48:12;11.20;99.90
44823;DHT22;51097;51.984;5.650;2023-01-26T12:50:28;11.30;99.90
44823;DHT22;51097;51.984;5.650;2023-01-26T12:52:58;11.40;99.90
44823;DHT22;51097;51.984;5.650;2023-01-26T12:55:46;11.40;99.90
44823;DHT22;51097;51.984;5.650;2023-01-26T13:00:51;11.50;99.90
44823;DHT22;51097;51.984;5.650;2023-01-26T13:03:20;11.60;99.90
44823;DHT22;51097;51.984;5.650;2023-01-26T13:11:01;11.80;99.90
44823;DHT22;51097;51.984;5.650;2023-01-26T13:13:33;11.80;99.90
44823;DHT22;51097;51.984;5.650;2023-01-26T13:18:51;11.80;99.90
44823;DHT22;51097;51.984;5.650;2023-01-26T13:26:47;11.80;99.90
44823;DHT22;51097;51.984;5.650;2023-01-26T13:31:54;11.90;99.90
44823;DHT22;51097;51.984;5.650;2023-01-26T13:34:32;11.80;99.90
44823;DHT22;51097;51.984;5.650;2023-01-26T13:37:25;11.80;99.90
44823;DHT22;51097;51.984;5.650;2023-01-26T13:40:03;11.80;99.90
44823;DHT22;51097;51.984;5.650;2023-01-26T13:42:39;12.00;99.90
44823;DHT22;51097;51.984;5.650;2023-01-26T13:45:15;12.00;99.90
44823;DHT22;51097;51.984;5.650;2023-01-26T13:47:45;12.00;99.90
44823;DHT22;51097;51.984;5.650;2023-01-26T13:52:48;11.90;99.90
44823;DHT22;51097;51.984;5.650;2023-01-26T13:55:33;11.90;99.90
44823;DHT22;51097;51.984;5.650;2023-01-26T13:58:16;12.00;99.90
44823;DHT22;51097;51.984;5.650;2023-01-26T14:00:42;12.00;99.90
44823;DHT22;51097;51.984;5.650;2023-01-26T14:03:22;12.10;99.90
44823;DHT22;51097;51.984;5.650;2023-01-26T14:05:58;12.20;99.90
44823;DHT22;51097;51.984;5.650;2023-01-26T14:08:25;12.30;99.90
44823;DHT22;51097;51.984;5.650;2023-01-26T14:10:51;12.40;99.90
44823;DHT22;51097;51.984;5.650;2023-01-26T14:13:27;12.30;99.90
44823;DHT22;51097;51.984;5.650;2023-01-26T14:15:55;12.40;99.90
44823;DHT22;51097;51.984;5.650;2023-01-26T14:18:21;12.40;99.90
44823;DHT22;51097;51.984;5.650;2023-01-26T14:20:47;12.30;99.90
44823;DHT22;51097;51.984;5.650;2023-01-26T14:23:17;12.40;99.90
44823;DHT22;51097;51.984;5.650;2023-01-26T14:25:54;12.30;99.90
44823;DHT22;51097;51.984;5.650;2023-01-26T14:28:22;12.20;99.90
44823;DHT22;51097;51.984;5.650;2023-01-26T14:30:57;12.20;99.90
44823;DHT22;51097;51.984;5.650;2023-01-26T14:33:24;12.20;99.90
44823;DHT22;51097;51.984;5.650;2023-01-26T14:36:00;12.30;99.90
44823;DHT22;51097;51.984;5.650;2023-01-26T14:38:27;12.30;99.90
44823;DHT22;51097;51.984;5.650;2023-01-26T14:40:58;12.10;99.90
44823;DHT22;51097;51.984;5.650;2023-01-26T14:43:25;12.10;99.90
44823;DHT22;51097;51.984;5.650;2023-01-26T14:49:01;12.00;99.90
44823;DHT22;51097;51.984;5.650;2023-01-26T14:51:29;12.10;99.90
44823;DHT22;51097;51.984;5.650;2023-01-26T14:54:05;11.90;99.90
44823;DHT22;51097;51.984;5.650;2023-01-26T14:56:36;12.00;99.90
44823;DHT22;51097;51.984;5.650;2023-01-26T14:59:03;11.90;99.90
44823;DHT22;51097;51.984;5.650;2023-01-26T15:01:29;11.80;99.90
44823;DHT22;51097;51.984;5.650;2023-01-26T15:04:17;11.80;99.90
44823;DHT22;51097;51.984;5.650;2023-01-26T15:06:46;11.80;99.90
44823;DHT22;51097;51.984;5.650;2023-01-26T15:09:25;11.70;99.90
44823;DHT22;51097;51.984;5.650;2023-01-26T15:11:53;11.70;99.90
44823;DHT22;51097;51.984;5.650;2023-01-26T15:14:50;11.70;99.90
44823;DHT22;51097;51.984;5.650;2023-01-26T15:20:03;11.70;99.90
44823;DHT22;51097;51.984;5.650;2023-01-26T15:22:34;11.50;99.90
44823;DHT22;51097;51.984;5.650;2023-01-26T15:25:23;11.60;99.90
44823;DHT22;51097;51.984;5.650;2023-01-26T15:27:55;11.50;99.90
44823;DHT22;51097;51.984;5.650;2023-01-26T15:30:33;11.70;99.90
44823;DHT22;51097;51.984;5.650;2023-01-26T15:33:00;11.60;99.90
44823;DHT22;51097;51.984;5.650;2023-01-26T15:35:33;11.50;99.90
44823;DHT22;51097;51.984;5.650;2023-01-26T15:38:09;11.60;99.90
44823;DHT22;51097;51.984;5.650;2023-01-26T15:40:36;11.60;99.90
44823;DHT22;51097;51.984;5.650;2023-01-26T15:43:18;11.40;99.90
44823;DHT22;51097;51.984;5.650;2023-01-26T15:48:12;11.30;99.90
44823;DHT22;51097;51.984;5.650;2023-01-26T15:50:38;11.30;99.90
44823;DHT22;51097;51.984;5.650;2023-01-26T15:53:03;11.30;99.90
44823;DHT22;51097;51.984;5.650;2023-01-26T15:55:31;11.20;99.90
44823;DHT22;51097;51.984;5.650;2023-01-26T15:57:57;11.10;99.90
44823;DHT22;51097;51.984;5.650;2023-01-26T16:00:23;11.10;99.90
44823;DHT22;51097;51.984;5.650;2023-01-26T16:02:49;11.10;99.90
44823;DHT22;51097;51.984;5.650;2023-01-26T16:05:18;11.10;99.90
44823;DHT22;51097;51.984;5.650;2023-01-26T16:07:43;11.10;99.90
44823;DHT22;51097;51.984;5.650;2023-01-26T16:10:09;11.00;99.90
44823;DHT22;51097;51.984;5.650;2023-01-26T16:12:35;11.00;99.90
44823;DHT22;51097;51.984;5.650;2023-01-26T16:15:01;10.80;99.90
44823;DHT22;51097;51.984;5.650;2023-01-26T16:17:26;10.70;99.90
44823;DHT22;51097;51.984;5.650;2023-01-26T16:19:52;10.70;99.90
44823;DHT22;51097;51.984;5.650;2023-01-26T16:22:18;10.80;99.90
44823;DHT22;51097;51.984;5.650;2023-01-26T16:24:43;10.80;99.90
44823;DHT22;51097;51.984;5.650;2023-01-26T16:27:09;10.90;99.90
44823;DHT22;51097;51.984;5.650;2023-01-26T16:29:35;10.80;99.90
44823;DHT22;51097;51.984;5.650;2023-01-26T16:32:41;10.80;99.90
44823;DHT22;51097;51.984;5.650;2023-01-26T16:35:15;10.90;99.90
44823;DHT22;51097;51.984;5.650;2023-01-26T16:37:41;10.80;99.90
44823;DHT22;51097;51.984;5.650;2023-01-26T16:40:08;10.70;99.90
44823;DHT22;51097;51.984;5.650;2023-01-26T16:42:36;10.70;99.90
44823;DHT22;51097;51.984;5.650;2023-01-26T16:45:03;10.70;99.90
44823;DHT22;51097;51.984;5.650;2023-01-26T16:47:29;10.70;99.90
44823;DHT22;51097;51.984;5.650;2023-01-26T16:49:57;10.50;99.90
44823;DHT22;51097;51.984;5.650;2023-01-26T16:52:25;10.60;99.90
44823;DHT22;51097;51.984;5.650;2023-01-26T16:54:51;10.50;99.90
44823;DHT22;51097;51.984;5.650;2023-01-26T16:57:18;10.60;99.90
44823;DHT22;51097;51.984;5.650;2023-01-26T16:59:43;10.50;99.90
44823;DHT22;51097;51.984;5.650;2023-01-26T17:02:24;10.50;99.90
44823;DHT22;51097;51.984;5.650;2023-01-26T17:04:55;10.50;99.90
44823;DHT22;51097;51.984;5.650;2023-01-26T17:07:21;10.40;99.90
44823;DHT22;51097;51.984;5.650;2023-01-26T17:19:40;10.20;99.90
44823;DHT22;51097;51.984;5.650;2023-01-26T17:29:36;10.00;99.90
44823;DHT22;51097;51.984;5.650;2023-01-26T17:35:42;10.10;99.90
44823;DHT22;51097;51.984;5.650;2023-01-26T17:38:29;10.10;99.90
44823;DHT22;51097;51.984;5.650;2023-01-26T17:41:04;10.00;99.90
44823;DHT22;51097;51.984;5.650;2023-01-26T17:43:39;10.00;99.90
44823;DHT22;51097;51.984;5.650;2023-01-26T17:46:27;10.00;99.90
44823;DHT22;51097;51.984;5.650;2023-01-26T17:52:27;10.00;99.90